Kyokuho Maru No.15 — JI3715 — position and weather

sailwx.info

Track history (hours):
 
Tides and Currents Weather Stations Pressure Air Temp Water Temp Dewpoint Dewpoint Depression Visibility Wind Speed Wind Dir Waves Ship Positions

Kyokuho Maru No.15

Last reported at 2014-Aug-30 08:33 UTC. Time now 2014-Aug-30 12:34 UTC.
Position N 34°51' E 139°11'.

Length 63 m; draft 3.4 m.

Type: Tanker. MMSI: 431301714.

Date/timePositionNaut miles runAvg speedWind from/ knotsBaromVisibWave heightAir tempDewpointWater temp
2014-Aug-30 08:33N 34°51' E 139°11'1211.6
2014-Aug-30 07:33N 34°58' E 139°22'1111.2
2014-Aug-30 06:33N 35°03' E 139°34'1313.1
2014-Aug-30 05:33N 35°12' E 139°46'1211.7
2014-Aug-30 04:33N 35°23' E 139°42'1211.6
2014-Aug-30 03:33N 35°29' E 139°55'4 3.7
2014-Aug-30 02:33N 35°27' E 139°58'3 2.7
2014-Aug-30 01:33N 35°29' E 139°56'9 9.1
2014-Aug-30 00:33N 35°32' E 139°45'0 0.0
2014-Aug-29 23:33N 35°32' E 139°45'2 1.5
2014-Aug-29 22:33N 35°30' E 139°46'9 9.2
2014-Aug-29 21:33N 35°33' E 139°57'8 7.9
2014-Aug-29 20:33N 35°36' E 140°06'0 0.0
2014-Aug-29 19:34N 35°36' E 140°06'0 0.0
2014-Aug-29 18:33N 35°36' E 140°06'0 0.0
2014-Aug-29 17:33N 35°36' E 140°06'0 0.0
2014-Aug-29 16:33N 35°36' E 140°06'0 0.0
2014-Aug-29 15:33N 35°36' E 140°06'0 0.0
2014-Aug-29 14:33N 35°36' E 140°06'0 0.0
2014-Aug-29 13:33N 35°36' E 140°06'0 0.0
2014-Aug-29 12:33N 35°36' E 140°06'0 0.0
2014-Aug-29 11:33N 35°36' E 140°06'0 0.0
2014-Aug-29 10:33N 35°36' E 140°06'0 0.0
2014-Aug-29 09:33N 35°36' E 140°06'0 0.0
2014-Aug-29 08:33N 35°36' E 140°06'5 4.7
2014-Aug-29 07:33N 35°37' E 140°01'5 5.4
2014-Aug-29 06:34N 35°40' E 139°56'0 0.0
2014-Aug-29 05:33N 35°40' E 139°56'0 0.0
2014-Aug-29 04:33N 35°40' E 139°56'5 5.3
2014-Aug-29 03:33N 35°36' E 140°00'5 5.1
2014-Aug-29 02:34N 35°32' E 140°03'0 0.0
2014-Aug-29 01:32N 35°32' E 140°03'0 0.0
2014-Aug-29 00:32N 35°32' E 140°03'0 0.1
2014-Aug-28 23:33N 35°32' E 140°03'2 1.5
2014-Aug-28 22:32N 35°32' E 140°02'0 0.0
2014-Aug-28 21:32N 35°32' E 140°02'0 0.1
2014-Aug-28 20:33N 35°32' E 140°02'0 0.0
2014-Aug-28 19:33N 35°32' E 140°02'0 0.0
2014-Aug-28 18:34N 35°32' E 140°02'0 0.0
2014-Aug-28 17:34N 35°32' E 140°02'0 0.0
2014-Aug-28 16:33N 35°32' E 140°02'0 0.0
2014-Aug-28 15:33N 35°32' E 140°02'0 0.0
2014-Aug-28 14:33N 35°32' E 140°02'2 1.7
2014-Aug-28 13:33N 35°31' E 140°00'9 8.9
2014-Aug-28 12:34N 35°28' E 139°50'8 8.5
2014-Aug-28 11:34N 35°23' E 139°41'1 0.6
2014-Aug-28 10:34N 35°22' E 139°41'0 0.0
2014-Aug-28 09:34N 35°22' E 139°41'0 0.1
2014-Aug-28 08:33N 35°22' E 139°41'0 0.4
2014-Aug-28 07:34N 35°22' E 139°41'4 3.7
2014-Aug-28 06:34N 35°25' E 139°44'1111.3
2014-Aug-28 05:33N 35°30' E 139°56'6 6.0
2014-Aug-28 04:34N 35°32' E 140°03'0 0.0
2014-Aug-28 03:34N 35°32' E 140°03'0 0.0
2014-Aug-28 02:33N 35°32' E 140°03'0 0.0
2014-Aug-28 01:34N 35°32' E 140°03'0 0.0
2014-Aug-28 00:34N 35°32' E 140°03'0 0.0
2014-Aug-27 23:33N 35°32' E 140°03'4 3.8
2014-Aug-27 22:33N 35°35' E 140°05'1 1.3
2014-Aug-27 21:31N 35°36' E 140°06'0 0.0
2014-Aug-27 20:28N 35°36' E 140°06'0 0.0
2014-Aug-27 19:28N 35°36' E 140°06'0 0.0
2014-Aug-27 18:25N 35°36' E 140°06'0 0.0
2014-Aug-27 17:28N 35°36' E 140°06'0 0.0
2014-Aug-27 16:31N 35°36' E 140°06'0 0.0
2014-Aug-27 15:25N 35°36' E 140°06'0 0.0
2014-Aug-27 14:28N 35°36' E 140°06'0 0.0
2014-Aug-27 13:31N 35°36' E 140°06'0 0.0
2014-Aug-27 12:31N 35°36' E 140°06'0 0.0
2014-Aug-27 11:31N 35°36' E 140°06'0 0.0
2014-Aug-27 10:31N 35°36' E 140°06'0 0.0
2014-Aug-27 09:31N 35°36' E 140°06'0 0.0
2014-Aug-27 08:31N 35°36' E 140°06'0 0.0
2014-Aug-27 07:28N 35°36' E 140°06'0 0.0
2014-Aug-27 06:31N 35°36' E 140°06'0 0.0
2014-Aug-27 05:28N 35°36' E 140°06'1 0.8
2014-Aug-27 04:33N 35°35' E 140°05'1211.5
2014-Aug-27 03:33N 35°31' E 139°52'5 5.4
2014-Aug-27 02:33N 35°31' E 139°46'0 0.0
2014-Aug-27 01:28N 35°31' E 139°46'0 0.0
2014-Aug-27 00:28N 35°31' E 139°46'0 0.0
2014-Aug-26 23:33N 35°31' E 139°46'4 3.6
2014-Aug-26 22:33N 35°29' E 139°49'0 0.0
2014-Aug-26 21:33N 35°29' E 139°49'5 5.5
2014-Aug-26 20:33N 35°24' E 139°46'9 9.3
2014-Aug-26 19:33N 35°14' E 139°47'1010.0
2014-Aug-26 18:33N 35°05' E 139°42'1010.2
2014-Aug-26 17:33N 34°60' E 139°32'240 9.8
2014-Aug-25 17:11N 34°05' E 134°48'  
2014-Aug-21 23:09N 34°08' E 132°17'6 9.5
2014-Aug-21 22:33N 34°13' E 132°15'0 0.0
2014-Aug-21 21:18N 34°13' E 132°15'0 0.0
2014-Aug-21 20:34N 34°13' E 132°15'0 0.0
2014-Aug-21 19:33N 34°13' E 132°15'0 0.0
2014-Aug-21 18:34N 34°13' E 132°15'0 0.0
2014-Aug-21 17:33N 34°13' E 132°15'0 0.0
2014-Aug-21 16:27N 34°13' E 132°15'0 0.0
2014-Aug-21 15:33N 34°13' E 132°15'0 0.0
2014-Aug-21 14:24N 34°13' E 132°15'0 0.0
2014-Aug-21 13:34N 34°13' E 132°15'0 0.0
2014-Aug-21 12:33N 34°13' E 132°15'0 0.0
2014-Aug-21 11:09N 34°13' E 132°15'0 0.0
2014-Aug-21 10:24N 34°13' E 132°15'0 0.0
2014-Aug-21 09:12N 34°13' E 132°15'0 0.0
2014-Aug-21 07:30N 34°13' E 132°15'0 0.0
2014-Aug-21 06:30N 34°13' E 132°15'0 0.0
2014-Aug-21 04:33N 34°13' E 132°15'0 0.0
2014-Aug-21 02:30N 34°13' E 132°15'0 0.0
2014-Aug-21 01:33N 34°13' E 132°15'0 0.0
2014-Aug-21 00:24N 34°13' E 132°15'0 0.4
2014-Aug-20 23:33N 34°13' E 132°15'3 1.3
2014-Aug-20 21:28N 34°11' E 132°17'0 0.0
2014-Aug-20 20:13N 34°11' E 132°17'0 0.0
2014-Aug-20 19:28N 34°11' E 132°17'2 0.9
2014-Aug-20 17:32N 34°10' E 132°19'1311.6
2014-Aug-20 16:23N 34°02' E 132°32'  
Track history (hours):
 
Tides and Currents Weather Stations Pressure Air Temp Water Temp Dewpoint Dewpoint Depression Visibility Wind Speed Wind Dir Waves Ship Positions

Kyokuho Maru No.15

Last reported at 2014-Aug-30 08:33 UTC. Time now 2014-Aug-30 12:34 UTC.
Position N 34°51' E 139°11'.

Length 63 m; draft 3.4 m.

Type: Tanker. MMSI: 431301714.

Date/timePositionNaut miles runAvg speedWind from/ knotsBaromVisibWave heightAir tempDewpointWater temp
2014-Aug-30 08:33N 34°51' E 139°11'1211.6
2014-Aug-30 07:33N 34°58' E 139°22'1111.2
2014-Aug-30 06:33N 35°03' E 139°34'1313.1
2014-Aug-30 05:33N 35°12' E 139°46'1211.7
2014-Aug-30 04:33N 35°23' E 139°42'1211.6
2014-Aug-30 03:33N 35°29' E 139°55'4 3.7
2014-Aug-30 02:33N 35°27' E 139°58'3 2.7
2014-Aug-30 01:33N 35°29' E 139°56'9 9.1
2014-Aug-30 00:33N 35°32' E 139°45'0 0.0
2014-Aug-29 23:33N 35°32' E 139°45'2 1.5
2014-Aug-29 22:33N 35°30' E 139°46'9 9.2
2014-Aug-29 21:33N 35°33' E 139°57'8 7.9
2014-Aug-29 20:33N 35°36' E 140°06'0 0.0
2014-Aug-29 19:34N 35°36' E 140°06'0 0.0
2014-Aug-29 18:33N 35°36' E 140°06'0 0.0
2014-Aug-29 17:33N 35°36' E 140°06'0 0.0
2014-Aug-29 16:33N 35°36' E 140°06'0 0.0
2014-Aug-29 15:33N 35°36' E 140°06'0 0.0
2014-Aug-29 14:33N 35°36' E 140°06'0 0.0
2014-Aug-29 13:33N 35°36' E 140°06'0 0.0
2014-Aug-29 12:33N 35°36' E 140°06'0 0.0
2014-Aug-29 11:33N 35°36' E 140°06'0 0.0
2014-Aug-29 10:33N 35°36' E 140°06'0 0.0
2014-Aug-29 09:33N 35°36' E 140°06'0 0.0
2014-Aug-29 08:33N 35°36' E 140°06'5 4.7
2014-Aug-29 07:33N 35°37' E 140°01'5 5.4
2014-Aug-29 06:34N 35°40' E 139°56'0 0.0
2014-Aug-29 05:33N 35°40' E 139°56'0 0.0
2014-Aug-29 04:33N 35°40' E 139°56'5 5.3
2014-Aug-29 03:33N 35°36' E 140°00'5 5.1
2014-Aug-29 02:34N 35°32' E 140°03'0 0.0
2014-Aug-29 01:32N 35°32' E 140°03'0 0.0
2014-Aug-29 00:32N 35°32' E 140°03'0 0.1
2014-Aug-28 23:33N 35°32' E 140°03'2 1.5
2014-Aug-28 22:32N 35°32' E 140°02'0 0.0
2014-Aug-28 21:32N 35°32' E 140°02'0 0.1
2014-Aug-28 20:33N 35°32' E 140°02'0 0.0
2014-Aug-28 19:33N 35°32' E 140°02'0 0.0
2014-Aug-28 18:34N 35°32' E 140°02'0 0.0
2014-Aug-28 17:34N 35°32' E 140°02'0 0.0
2014-Aug-28 16:33N 35°32' E 140°02'0 0.0
2014-Aug-28 15:33N 35°32' E 140°02'0 0.0
2014-Aug-28 14:33N 35°32' E 140°02'2 1.7
2014-Aug-28 13:33N 35°31' E 140°00'9 8.9
2014-Aug-28 12:34N 35°28' E 139°50'8 8.5
2014-Aug-28 11:34N 35°23' E 139°41'1 0.6
2014-Aug-28 10:34N 35°22' E 139°41'0 0.0
2014-Aug-28 09:34N 35°22' E 139°41'0 0.1
2014-Aug-28 08:33N 35°22' E 139°41'0 0.4
2014-Aug-28 07:34N 35°22' E 139°41'4 3.7
2014-Aug-28 06:34N 35°25' E 139°44'1111.3
2014-Aug-28 05:33N 35°30' E 139°56'6 6.0
2014-Aug-28 04:34N 35°32' E 140°03'0 0.0
2014-Aug-28 03:34N 35°32' E 140°03'0 0.0
2014-Aug-28 02:33N 35°32' E 140°03'0 0.0
2014-Aug-28 01:34N 35°32' E 140°03'0 0.0
2014-Aug-28 00:34N 35°32' E 140°03'0 0.0
2014-Aug-27 23:33N 35°32' E 140°03'4 3.8
2014-Aug-27 22:33N 35°35' E 140°05'1 1.3
2014-Aug-27 21:31N 35°36' E 140°06'0 0.0
2014-Aug-27 20:28N 35°36' E 140°06'0 0.0
2014-Aug-27 19:28N 35°36' E 140°06'0 0.0
2014-Aug-27 18:25N 35°36' E 140°06'0 0.0
2014-Aug-27 17:28N 35°36' E 140°06'0 0.0
2014-Aug-27 16:31N 35°36' E 140°06'0 0.0
2014-Aug-27 15:25N 35°36' E 140°06'0 0.0
2014-Aug-27 14:28N 35°36' E 140°06'0 0.0
2014-Aug-27 13:31N 35°36' E 140°06'0 0.0
2014-Aug-27 12:31N 35°36' E 140°06'0 0.0
2014-Aug-27 11:31N 35°36' E 140°06'0 0.0
2014-Aug-27 10:31N 35°36' E 140°06'0 0.0
2014-Aug-27 09:31N 35°36' E 140°06'0 0.0
2014-Aug-27 08:31N 35°36' E 140°06'0 0.0
2014-Aug-27 07:28N 35°36' E 140°06'0 0.0
2014-Aug-27 06:31N 35°36' E 140°06'0 0.0
2014-Aug-27 05:28N 35°36' E 140°06'1 0.8
2014-Aug-27 04:33N 35°35' E 140°05'1211.5
2014-Aug-27 03:33N 35°31' E 139°52'5 5.4
2014-Aug-27 02:33N 35°31' E 139°46'0 0.0
2014-Aug-27 01:28N 35°31' E 139°46'0 0.0
2014-Aug-27 00:28N 35°31' E 139°46'0 0.0
2014-Aug-26 23:33N 35°31' E 139°46'4 3.6
2014-Aug-26 22:33N 35°29' E 139°49'0 0.0
2014-Aug-26 21:33N 35°29' E 139°49'5 5.5
2014-Aug-26 20:33N 35°24' E 139°46'9 9.3
2014-Aug-26 19:33N 35°14' E 139°47'1010.0
2014-Aug-26 18:33N 35°05' E 139°42'1010.2
2014-Aug-26 17:33N 34°60' E 139°32'240 9.8
2014-Aug-25 17:11N 34°05' E 134°48'  
2014-Aug-21 23:09N 34°08' E 132°17'6 9.5
2014-Aug-21 22:33N 34°13' E 132°15'0 0.0
2014-Aug-21 21:18N 34°13' E 132°15'0 0.0
2014-Aug-21 20:34N 34°13' E 132°15'0 0.0
2014-Aug-21 19:33N 34°13' E 132°15'0 0.0
2014-Aug-21 18:34N 34°13' E 132°15'0 0.0
2014-Aug-21 17:33N 34°13' E 132°15'0 0.0
2014-Aug-21 16:27N 34°13' E 132°15'0 0.0
2014-Aug-21 15:33N 34°13' E 132°15'0 0.0
2014-Aug-21 14:24N 34°13' E 132°15'0 0.0
2014-Aug-21 13:34N 34°13' E 132°15'0 0.0
2014-Aug-21 12:33N 34°13' E 132°15'0 0.0
2014-Aug-21 11:09N 34°13' E 132°15'0 0.0
2014-Aug-21 10:24N 34°13' E 132°15'0 0.0
2014-Aug-21 09:12N 34°13' E 132°15'0 0.0
2014-Aug-21 07:30N 34°13' E 132°15'0 0.0
2014-Aug-21 06:30N 34°13' E 132°15'0 0.0
2014-Aug-21 04:33N 34°13' E 132°15'0 0.0
2014-Aug-21 02:30N 34°13' E 132°15'0 0.0
2014-Aug-21 01:33N 34°13' E 132°15'0 0.0
2014-Aug-21 00:24N 34°13' E 132°15'0 0.4
2014-Aug-20 23:33N 34°13' E 132°15'3 1.3
2014-Aug-20 21:28N 34°11' E 132°17'0 0.0
2014-Aug-20 20:13N 34°11' E 132°17'0 0.0
2014-Aug-20 19:28N 34°11' E 132°17'2 0.9
2014-Aug-20 17:32N 34°10' E 132°19'1311.6
2014-Aug-20 16:23N 34°02' E 132°32'  

Dump ship's entire track history